sensor_id;sensor_type;location;lat;lon;timestamp;pressure;altitude;pressure_sealevel;temperature;humidity
60307;BME280;46155;52.364;6.580;2023-04-02T03:00:37;101264.50;;;3.16;100.00
60307;BME280;46155;52.364;6.580;2023-04-02T03:03:07;101255.03;;;3.07;100.00
60307;BME280;46155;52.364;6.580;2023-04-02T03:05:34;101275.19;;;3.10;100.00
60307;BME280;46155;52.364;6.580;2023-04-02T03:08:02;101254.47;;;3.01;100.00
60307;BME280;46155;52.364;6.580;2023-04-02T03:10:49;101274.91;;;3.07;100.00
60307;BME280;46155;52.364;6.580;2023-04-02T03:13:32;101280.53;;;3.03;100.00
60307;BME280;46155;52.364;6.580;2023-04-02T03:18:47;101305.41;;;2.83;100.00
60307;BME280;46155;52.364;6.580;2023-04-02T03:21:27;101309.09;;;2.77;100.00
60307;BME280;46155;52.364;6.580;2023-04-02T03:24:05;101308.78;;;2.73;100.00
60307;BME280;46155;52.364;6.580;2023-04-02T03:26:41;101318.09;;;2.71;100.00
60307;BME280;46155;52.364;6.580;2023-04-02T03:29:17;101320.53;;;2.61;100.00
60307;BME280;46155;52.364;6.580;2023-04-02T03:31:53;101322.19;;;2.61;100.00
60307;BME280;46155;52.364;6.580;2023-04-02T03:34:36;101332.09;;;2.65;100.00
60307;BME280;46155;52.364;6.580;2023-04-02T03:37:25;101341.41;;;2.54;100.00
60307;BME280;46155;52.364;6.580;2023-04-02T03:40:01;101347.78;;;2.57;100.00
60307;BME280;46155;52.364;6.580;2023-04-02T03:42:44;101334.97;;;2.50;100.00
60307;BME280;46155;52.364;6.580;2023-04-02T03:45:22;101356.00;;;2.45;100.00
60307;BME280;46155;52.364;6.580;2023-04-02T03:47:55;101353.56;;;2.37;100.00
60307;BME280;46155;52.364;6.580;2023-04-02T03:50:37;101375.91;;;2.28;100.00
60307;BME280;46155;52.364;6.580;2023-04-02T03:53:05;101370.91;;;2.30;100.00
60307;BME280;46155;52.364;6.580;2023-04-02T03:55:40;101374.41;;;2.30;100.00
60307;BME280;46155;52.364;6.580;2023-04-02T03:58:23;101376.69;;;2.27;100.00
60307;BME280;46155;52.364;6.580;2023-04-02T04:01:03;101386.28;;;2.28;100.00
60307;BME280;46155;52.364;6.580;2023-04-02T04:03:37;101395.88;;;2.20;100.00
60307;BME280;46155;52.364;6.580;2023-04-02T04:06:23;101397.06;;;2.15;100.00
60307;BME280;46155;52.364;6.580;2023-04-02T04:09:09;101398.63;;;2.22;100.00
60307;BME280;46155;52.364;6.580;2023-04-02T04:11:38;101398.28;;;2.10;100.00
60307;BME280;46155;52.364;6.580;2023-04-02T04:14:23;101413.22;;;2.13;100.00
60307;BME280;46155;52.364;6.580;2023-04-02T04:16:58;101418.84;;;2.09;100.00
60307;BME280;46155;52.364;6.580;2023-04-02T04:19:49;101424.00;;;2.09;100.00
60307;BME280;46155;52.364;6.580;2023-04-02T04:22:24;101429.94;;;2.08;100.00
60307;BME280;46155;52.364;6.580;2023-04-02T04:24:59;101427.50;;;2.09;100.00
60307;BME280;46155;52.364;6.580;2023-04-02T04:30:06;101449.41;;;2.04;100.00
60307;BME280;46155;52.364;6.580;2023-04-02T04:33:14;101455.03;;;2.00;100.00
60307;BME280;46155;52.364;6.580;2023-04-02T04:35:50;101466.38;;;2.09;100.00
60307;BME280;46155;52.364;6.580;2023-04-02T04:38:31;101473.22;;;2.09;100.00
60307;BME280;46155;52.364;6.580;2023-04-02T04:41:14;101476.63;;;1.92;100.00
60307;BME280;46155;52.364;6.580;2023-04-02T04:43:47;101484.31;;;1.83;100.00
60307;BME280;46155;52.364;6.580;2023-04-02T04:52:08;101515.00;;;1.71;100.00
60307;BME280;46155;52.364;6.580;2023-04-02T04:54:38;101518.59;;;1.64;100.00
60307;BME280;46155;52.364;6.580;2023-04-02T04:57:04;101511.69;;;1.56;100.00
60307;BME280;46155;52.364;6.580;2023-04-02T04:59:57;101516.28;;;1.43;100.00
60307;BME280;46155;52.364;6.580;2023-04-02T05:02:30;101529.13;;;1.50;100.00
60307;BME280;46155;52.364;6.580;2023-04-02T05:04:58;101526.22;;;1.47;100.00
60307;BME280;46155;52.364;6.580;2023-04-02T05:07:27;101538.31;;;1.55;100.00
60307;BME280;46155;52.364;6.580;2023-04-02T05:10:14;101544.97;;;1.53;100.00
60307;BME280;46155;52.364;6.580;2023-04-02T05:12:47;101532.13;;;1.46;100.00
60307;BME280;46155;52.364;6.580;2023-04-02T05:15:20;101536.22;;;1.44;100.00
60307;BME280;46155;52.364;6.580;2023-04-02T05:21:02;101561.63;;;1.39;100.00
60307;BME280;46155;52.364;6.580;2023-04-02T05:23:37;101563.88;;;1.52;100.00
60307;BME280;46155;52.364;6.580;2023-04-02T05:26:22;101575.63;;;1.41;100.00
60307;BME280;46155;52.364;6.580;2023-04-02T05:29:01;101578.72;;;1.46;100.00
60307;BME280;46155;52.364;6.580;2023-04-02T05:33:58;101593.81;;;1.50;100.00
60307;BME280;46155;52.364;6.580;2023-04-02T05:36:26;101594.16;;;1.53;100.00
60307;BME280;46155;52.364;6.580;2023-04-02T05:38:54;101598.91;;;1.57;100.00
60307;BME280;46155;52.364;6.580;2023-04-02T05:41:32;101610.88;;;1.64;100.00
60307;BME280;46155;52.364;6.580;2023-04-02T05:49:44;101627.06;;;1.54;100.00
60307;BME280;46155;52.364;6.580;2023-04-02T05:52:16;101634.41;;;1.58;100.00
60307;BME280;46155;52.364;6.580;2023-04-02T05:54:47;101648.66;;;1.54;100.00
60307;BME280;46155;52.364;6.580;2023-04-02T05:57:20;101660.03;;;1.48;100.00
60307;BME280;46155;52.364;6.580;2023-04-02T05:59:51;101663.03;;;1.44;100.00
60307;BME280;46155;52.364;6.580;2023-04-02T06:02:27;101665.78;;;1.45;100.00
60307;BME280;46155;52.364;6.580;2023-04-02T06:04:59;101675.22;;;1.45;100.00
60307;BME280;46155;52.364;6.580;2023-04-02T06:10:09;101694.91;;;1.51;100.00
60307;BME280;46155;52.364;6.580;2023-04-02T06:12:56;101709.53;;;1.51;100.00
60307;BME280;46155;52.364;6.580;2023-04-02T06:15:26;101712.78;;;1.57;100.00
60307;BME280;46155;52.364;6.580;2023-04-02T06:20:26;101730.13;;;1.42;100.00
60307;BME280;46155;52.364;6.580;2023-04-02T06:22:56;101728.38;;;1.50;100.00
60307;BME280;46155;52.364;6.580;2023-04-02T06:25:36;101727.66;;;1.51;100.00
60307;BME280;46155;52.364;6.580;2023-04-02T06:28:05;101737.75;;;1.57;100.00
60307;BME280;46155;52.364;6.580;2023-04-02T06:30:37;101721.09;;;1.38;100.00
60307;BME280;46155;52.364;6.580;2023-04-02T06:33:05;101748.81;;;1.40;100.00
60307;BME280;46155;52.364;6.580;2023-04-02T06:35:34;101750.53;;;1.55;100.00
60307;BME280;46155;52.364;6.580;2023-04-02T06:38:03;101759.38;;;1.57;100.00
60307;BME280;46155;52.364;6.580;2023-04-02T06:42:56;101772.63;;;1.44;100.00
60307;BME280;46155;52.364;6.580;2023-04-02T06:45:37;101770.75;;;1.43;100.00
60307;BME280;46155;52.364;6.580;2023-04-02T06:48:13;101778.75;;;1.37;100.00
60307;BME280;46155;52.364;6.580;2023-04-02T06:50:50;101767.94;;;1.49;100.00
60307;BME280;46155;52.364;6.580;2023-04-02T06:53:23;101780.47;;;1.53;100.00
60307;BME280;46155;52.364;6.580;2023-04-02T06:55:54;101774.22;;;1.51;100.00
60307;BME280;46155;52.364;6.580;2023-04-02T06:58:23;101805.63;;;1.54;100.00
60307;BME280;46155;52.364;6.580;2023-04-02T07:00:48;101801.78;;;1.50;100.00
60307;BME280;46155;52.364;6.580;2023-04-02T07:03:16;101807.19;;;1.45;100.00
60307;BME280;46155;52.364;6.580;2023-04-02T07:05:43;101800.00;;;1.42;100.00
60307;BME280;46155;52.364;6.580;2023-04-02T07:08:09;101799.06;;;1.42;100.00
60307;BME280;46155;52.364;6.580;2023-04-02T07:10:35;101808.72;;;1.35;100.00
60307;BME280;46155;52.364;6.580;2023-04-02T07:13:01;101815.97;;;1.54;100.00
60307;BME280;46155;52.364;6.580;2023-04-02T07:15:27;101817.50;;;1.52;100.00
60307;BME280;46155;52.364;6.580;2023-04-02T07:17:52;101811.47;;;1.37;100.00
60307;BME280;46155;52.364;6.580;2023-04-02T07:20:30;101824.59;;;1.38;100.00
60307;BME280;46155;52.364;6.580;2023-04-02T07:22:56;101823.81;;;1.47;100.00
60307;BME280;46155;52.364;6.580;2023-04-02T07:25:23;101824.09;;;1.57;100.00
60307;BME280;46155;52.364;6.580;2023-04-02T07:27:49;101839.38;;;1.63;100.00
60307;BME280;46155;52.364;6.580;2023-04-02T07:30:15;101845.22;;;1.76;100.00
60307;BME280;46155;52.364;6.580;2023-04-02T07:32:40;101853.09;;;1.85;100.00
60307;BME280;46155;52.364;6.580;2023-04-02T07:35:07;101852.03;;;1.76;99.53
60307;BME280;46155;52.364;6.580;2023-04-02T07:37:32;101872.25;;;1.71;99.03
60307;BME280;46155;52.364;6.580;2023-04-02T07:39:57;101850.28;;;1.67;98.31
60307;BME280;46155;52.364;6.580;2023-04-02T07:42:23;101877.88;;;1.60;97.59
60307;BME280;46155;52.364;6.580;2023-04-02T07:44:48;101876.84;;;1.50;97.30
60307;BME280;46155;52.364;6.580;2023-04-02T07:47:13;101875.69;;;1.55;97.63
60307;BME280;46155;52.364;6.580;2023-04-02T07:49:38;101879.00;;;1.62;97.88
60307;BME280;46155;52.364;6.580;2023-04-02T07:52:04;101879.50;;;1.66;97.55
60307;BME280;46155;52.364;6.580;2023-04-02T07:54:30;101882.88;;;1.81;98.41
60307;BME280;46155;52.364;6.580;2023-04-02T07:56:56;101881.63;;;1.78;97.08
60307;BME280;46155;52.364;6.580;2023-04-02T07:59:21;101896.78;;;1.82;96.75
60307;BME280;46155;52.364;6.580;2023-04-02T08:01:46;101895.59;;;1.87;96.89
60307;BME280;46155;52.364;6.580;2023-04-02T08:04:17;101897.97;;;1.93;96.27
60307;BME280;46155;52.364;6.580;2023-04-02T08:06:43;101902.63;;;1.88;94.92
60307;BME280;46155;52.364;6.580;2023-04-02T08:09:09;101908.25;;;2.00;94.13
60307;BME280;46155;52.364;6.580;2023-04-02T08:11:34;101920.72;;;2.18;94.08
60307;BME280;46155;52.364;6.580;2023-04-02T08:13:59;101906.34;;;2.29;93.36
60307;BME280;46155;52.364;6.580;2023-04-02T08:16:25;101920.38;;;2.70;93.88
60307;BME280;46155;52.364;6.580;2023-04-02T08:18:51;101936.56;;;2.84;88.46
60307;BME280;46155;52.364;6.580;2023-04-02T08:21:17;101931.44;;;2.77;88.54
60307;BME280;46155;52.364;6.580;2023-04-02T08:23:42;101936.25;;;2.73;88.69
60307;BME280;46155;52.364;6.580;2023-04-02T08:26:08;101942.47;;;2.83;88.47
60307;BME280;46155;52.364;6.580;2023-04-02T08:28:34;101933.28;;;2.93;88.25
60307;BME280;46155;52.364;6.580;2023-04-02T08:30:59;101950.09;;;3.13;87.32
60307;BME280;46155;52.364;6.580;2023-04-02T08:33:25;101946.56;;;3.28;87.86
60307;BME280;46155;52.364;6.580;2023-04-02T08:35:51;101956.34;;;3.31;84.44
60307;BME280;46155;52.364;6.580;2023-04-02T08:38:18;101952.94;;;3.39;85.06
60307;BME280;46155;52.364;6.580;2023-04-02T08:40:47;101945.94;;;3.47;86.21
60307;BME280;46155;52.364;6.580;2023-04-02T08:43:43;101958.28;;;3.82;85.36
60307;BME280;46155;52.364;6.580;2023-04-02T08:46:25;101976.22;;;3.71;84.75
60307;BME280;46155;52.364;6.580;2023-04-02T08:48:56;101980.88;;;3.83;83.26
60307;BME280;46155;52.364;6.580;2023-04-02T08:51:25;101987.50;;;3.31;81.93
60307;BME280;46155;52.364;6.580;2023-04-02T08:53:53;101988.16;;;3.53;83.50
60307;BME280;46155;52.364;6.580;2023-04-02T08:56:39;101984.50;;;3.35;82.62
60307;BME280;46155;52.364;6.580;2023-04-02T08:59:34;101994.47;;;3.39;84.18
60307;BME280;46155;52.364;6.580;2023-04-02T09:04:37;101995.22;;;3.79;82.98
60307;BME280;46155;52.364;6.580;2023-04-02T09:07:05;101995.06;;;4.02;83.64
60307;BME280;46155;52.364;6.580;2023-04-02T09:09:33;102003.50;;;4.33;81.95
60307;BME280;46155;52.364;6.580;2023-04-02T09:12:01;102008.16;;;4.44;81.81
60307;BME280;46155;52.364;6.580;2023-04-02T09:15:03;102014.41;;;4.13;79.41
60307;BME280;46155;52.364;6.580;2023-04-02T09:17:30;102030.88;;;4.05;80.34
60307;BME280;46155;52.364;6.580;2023-04-02T09:20:03;102021.00;;;3.93;81.36
60307;BME280;46155;52.364;6.580;2023-04-02T09:22:33;102027.31;;;3.79;83.15
60307;BME280;46155;52.364;6.580;2023-04-02T09:25:05;102028.63;;;3.92;82.63
60307;BME280;46155;52.364;6.580;2023-04-02T09:27:36;102051.13;;;4.16;81.55
60307;BME280;46155;52.364;6.580;2023-04-02T09:32:53;102061.19;;;4.13;80.94
60307;BME280;46155;52.364;6.580;2023-04-02T09:35:24;102069.09;;;4.06;79.09
60307;BME280;46155;52.364;6.580;2023-04-02T09:43:21;102058.06;;;4.24;79.47
60307;BME280;46155;52.364;6.580;2023-04-02T09:48:43;102069.78;;;4.21;77.61
60307;BME280;46155;52.364;6.580;2023-04-02T09:51:18;102071.44;;;4.36;78.81
60307;BME280;46155;52.364;6.580;2023-04-02T09:53:51;102069.94;;;4.38;79.41
60307;BME280;46155;52.364;6.580;2023-04-02T09:56:32;102065.38;;;4.78;81.63
60307;BME280;46155;52.364;6.580;2023-04-02T10:02:02;102090.59;;;4.70;75.96
60307;BME280;46155;52.364;6.580;2023-04-02T10:06:55;102098.38;;;4.95;80.33
60307;BME280;46155;52.364;6.580;2023-04-02T10:09:40;102099.63;;;5.07;79.34
60307;BME280;46155;52.364;6.580;2023-04-02T10:12:10;102102.59;;;4.86;77.01
60307;BME280;46155;52.364;6.580;2023-04-02T10:14:40;102092.16;;;4.77;77.22
60307;BME280;46155;52.364;6.580;2023-04-02T10:17:14;102097.16;;;5.00;78.55
60307;BME280;46155;52.364;6.580;2023-04-02T10:19:49;102104.47;;;4.95;76.46
60307;BME280;46155;52.364;6.580;2023-04-02T10:22:19;102099.28;;;4.95;79.10
60307;BME280;46155;52.364;6.580;2023-04-02T10:24:45;102108.84;;;5.12;78.10
60307;BME280;46155;52.364;6.580;2023-04-02T10:27:23;102104.91;;;5.25;79.19
60307;BME280;46155;52.364;6.580;2023-04-02T10:33:02;102117.34;;;4.94;77.06
60307;BME280;46155;52.364;6.580;2023-04-02T10:49:19;102143.56;;;5.46;76.85
60307;BME280;46155;52.364;6.580;2023-04-02T10:52:04;102145.59;;;5.15;78.94
60307;BME280;46155;52.364;6.580;2023-04-02T10:57:21;102146.91;;;5.37;78.57
60307;BME280;46155;52.364;6.580;2023-04-02T10:59:59;102146.16;;;5.46;76.84
60307;BME280;46155;52.364;6.580;2023-04-02T11:03:04;102151.22;;;5.54;77.29
60307;BME280;46155;52.364;6.580;2023-04-02T11:08:26;102162.44;;;5.61;74.52
60307;BME280;46155;52.364;6.580;2023-04-02T11:11:04;102163.31;;;6.04;74.09
60307;BME280;46155;52.364;6.580;2023-04-02T11:13:51;102160.09;;;6.24;74.27
60307;BME280;46155;52.364;6.580;2023-04-02T11:16:19;102163.91;;;6.28;71.38
60307;BME280;46155;52.364;6.580;2023-04-02T11:21:40;102170.38;;;6.14;75.08
60307;BME280;46155;52.364;6.580;2023-04-02T11:29:35;102184.31;;;6.14;74.97
60307;BME280;46155;52.364;6.580;2023-04-02T11:39:57;102181.41;;;6.29;69.90
60307;BME280;46155;52.364;6.580;2023-04-02T11:42:29;102197.53;;;6.42;72.71
60307;BME280;46155;52.364;6.580;2023-04-02T11:44:58;102192.00;;;6.39;70.87
60307;BME280;46155;52.364;6.580;2023-04-02T11:47:28;102191.53;;;6.43;72.44
60307;BME280;46155;52.364;6.580;2023-04-02T11:52:37;102205.03;;;6.39;71.12
60307;BME280;46155;52.364;6.580;2023-04-02T11:55:18;102204.44;;;6.33;70.92
60307;BME280;46155;52.364;6.580;2023-04-02T12:06:10;102208.13;;;6.52;72.55
60307;BME280;46155;52.364;6.580;2023-04-02T12:08:48;102224.06;;;6.55;70.62
60307;BME280;46155;52.364;6.580;2023-04-02T12:11:29;102223.75;;;6.61;70.76
60307;BME280;46155;52.364;6.580;2023-04-02T12:13:57;102229.13;;;6.63;69.93
60307;BME280;46155;52.364;6.580;2023-04-02T12:16:24;102225.47;;;6.61;69.17
60307;BME280;46155;52.364;6.580;2023-04-02T12:18:55;102209.59;;;6.85;69.92
60307;BME280;46155;52.364;6.580;2023-04-02T12:21:24;102220.63;;;6.92;70.06
60307;BME280;46155;52.364;6.580;2023-04-02T12:23:52;102214.63;;;7.01;69.39
60307;BME280;46155;52.364;6.580;2023-04-02T12:26:31;102214.75;;;7.20;68.50
60307;BME280;46155;52.364;6.580;2023-04-02T12:29:23;102226.41;;;7.15;68.03
60307;BME280;46155;52.364;6.580;2023-04-02T12:31:56;102224.56;;;7.23;67.75
60307;BME280;46155;52.364;6.580;2023-04-02T12:34:23;102227.63;;;7.28;66.61
60307;BME280;46155;52.364;6.580;2023-04-02T12:37:00;102227.00;;;7.21;66.37
60307;BME280;46155;52.364;6.580;2023-04-02T12:39:27;102231.34;;;7.12;68.21
60307;BME280;46155;52.364;6.580;2023-04-02T12:41:53;102245.16;;;7.11;66.87
60307;BME280;46155;52.364;6.580;2023-04-02T12:44:24;102238.59;;;7.06;65.99
60307;BME280;46155;52.364;6.580;2023-04-02T12:46:50;102238.09;;;7.10;67.67
60307;BME280;46155;52.364;6.580;2023-04-02T12:49:37;102242.66;;;7.21;66.84
60307;BME280;46155;52.364;6.580;2023-04-02T12:52:09;102252.53;;;7.15;66.71
60307;BME280;46155;52.364;6.580;2023-04-02T12:54:43;102240.59;;;7.00;67.01
60307;BME280;46155;52.364;6.580;2023-04-02T12:59:51;102242.53;;;7.29;67.32
60307;BME280;46155;52.364;6.580;2023-04-02T13:02:28;102239.25;;;7.40;67.86
60307;BME280;46155;52.364;6.580;2023-04-02T13:04:57;102240.41;;;7.52;66.14
60307;BME280;46155;52.364;6.580;2023-04-02T13:07:27;102245.41;;;7.40;65.14
60307;BME280;46155;52.364;6.580;2023-04-02T13:10:22;102236.13;;;7.53;64.03
60307;BME280;46155;52.364;6.580;2023-04-02T13:12:47;102257.91;;;7.62;64.15
60307;BME280;46155;52.364;6.580;2023-04-02T13:15:30;102246.81;;;7.65;66.01
60307;BME280;46155;52.364;6.580;2023-04-02T13:20:38;102257.00;;;7.62;63.44
60307;BME280;46155;52.364;6.580;2023-04-02T13:25:47;102258.72;;;7.52;63.82
60307;BME280;46155;52.364;6.580;2023-04-02T13:28:13;102261.28;;;7.61;64.52
60307;BME280;46155;52.364;6.580;2023-04-02T13:30:38;102258.25;;;7.56;64.40
60307;BME280;46155;52.364;6.580;2023-04-02T13:33:04;102256.72;;;7.50;64.30
60307;BME280;46155;52.364;6.580;2023-04-02T13:35:29;102267.63;;;7.54;65.01
60307;BME280;46155;52.364;6.580;2023-04-02T13:37:55;102272.34;;;7.67;64.75
60307;BME280;46155;52.364;6.580;2023-04-02T13:40:21;102257.94;;;7.53;63.61
60307;BME280;46155;52.364;6.580;2023-04-02T13:42:47;102260.56;;;7.53;63.57
60307;BME280;46155;52.364;6.580;2023-04-02T13:45:23;102252.81;;;7.64;65.63
60307;BME280;46155;52.364;6.580;2023-04-02T13:47:49;102254.09;;;7.86;64.28
60307;BME280;46155;52.364;6.580;2023-04-02T13:50:17;102254.19;;;7.97;64.22
60307;BME280;46155;52.364;6.580;2023-04-02T13:52:42;102251.53;;;8.05;63.25
60307;BME280;46155;52.364;6.580;2023-04-02T13:55:08;102262.56;;;8.12;61.71
60307;BME280;46155;52.364;6.580;2023-04-02T13:57:35;102271.81;;;8.08;62.45
60307;BME280;46155;52.364;6.580;2023-04-02T14:00:01;102273.09;;;8.03;62.20
60307;BME280;46155;52.364;6.580;2023-04-02T14:02:27;102282.59;;;8.11;63.06
60307;BME280;46155;52.364;6.580;2023-04-02T14:05:10;102275.09;;;7.97;62.62
60307;BME280;46155;52.364;6.580;2023-04-02T14:08:08;102278.47;;;8.04;61.90
60307;BME280;46155;52.364;6.580;2023-04-02T14:11:05;102277.22;;;8.09;64.97
60307;BME280;46155;52.364;6.580;2023-04-02T14:25:06;102283.03;;;8.35;61.83
60307;BME280;46155;52.364;6.580;2023-04-02T14:27:54;102282.59;;;8.30;61.72
60307;BME280;46155;52.364;6.580;2023-04-02T14:33:42;102273.84;;;8.30;61.29
60307;BME280;46155;52.364;6.580;2023-04-02T14:38:56;102293.78;;;8.47;61.33
60307;BME280;46155;52.364;6.580;2023-04-02T14:41:47;102297.75;;;8.43;61.35
60307;BME280;46155;52.364;6.580;2023-04-02T14:44:21;102285.00;;;8.65;63.28
60307;BME280;46155;52.364;6.580;2023-04-02T14:46:48;102287.69;;;8.75;60.89
60307;BME280;46155;52.364;6.580;2023-04-02T14:49:26;102293.09;;;8.87;60.80
60307;BME280;46155;52.364;6.580;2023-04-02T14:51:58;102286.97;;;8.87;61.69
60307;BME280;46155;52.364;6.580;2023-04-02T14:54:30;102292.16;;;8.76;60.44
60307;BME280;46155;52.364;6.580;2023-04-02T14:57:09;102297.25;;;8.75;60.90
60307;BME280;46155;52.364;6.580;2023-04-02T15:04:53;102288.66;;;8.67;61.08
60307;BME280;46155;52.364;6.580;2023-04-02T15:07:28;102308.28;;;8.62;59.71
60307;BME280;46155;52.364;6.580;2023-04-02T15:12:39;102310.66;;;8.50;60.52
60307;BME280;46155;52.364;6.580;2023-04-02T15:18:02;102312.59;;;8.61;60.62
60307;BME280;46155;52.364;6.580;2023-04-02T15:20:42;102306.38;;;8.70;60.60
60307;BME280;46155;52.364;6.580;2023-04-02T15:26:20;102308.22;;;8.71;60.94
60307;BME280;46155;52.364;6.580;2023-04-02T15:28:58;102309.19;;;8.82;62.82
60307;BME280;46155;52.364;6.580;2023-04-02T15:31:27;102311.66;;;8.80;61.25
60307;BME280;46155;52.364;6.580;2023-04-02T15:36:57;102314.72;;;8.85;60.53
60307;BME280;46155;52.364;6.580;2023-04-02T15:53:03;102333.53;;;8.61;60.38
60307;BME280;46155;52.364;6.580;2023-04-02T15:55:38;102333.03;;;8.66;60.84
60307;BME280;46155;52.364;6.580;2023-04-02T16:01:05;102352.44;;;8.68;61.27
60307;BME280;46155;52.364;6.580;2023-04-02T16:06:27;102355.56;;;8.64;60.65
60307;BME280;46155;52.364;6.580;2023-04-02T16:09:05;102347.50;;;8.71;61.24
60307;BME280;46155;52.364;6.580;2023-04-02T16:11:33;102349.63;;;8.75;61.15
60307;BME280;46155;52.364;6.580;2023-04-02T16:14:19;102344.31;;;8.84;61.74
60307;BME280;46155;52.364;6.580;2023-04-02T16:16:49;102354.38;;;8.79;60.01
60307;BME280;46155;52.364;6.580;2023-04-02T16:19:44;102369.56;;;8.64;59.21
60307;BME280;46155;52.364;6.580;2023-04-02T16:24:52;102376.34;;;8.62;59.89
60307;BME280;46155;52.364;6.580;2023-04-02T16:27:39;102368.03;;;8.57;58.49
60307;BME280;46155;52.364;6.580;2023-04-02T16:30:32;102368.19;;;8.59;60.44
60307;BME280;46155;52.364;6.580;2023-04-02T16:43:55;102381.78;;;8.55;60.89
60307;BME280;46155;52.364;6.580;2023-04-02T16:49:22;102379.56;;;8.32;60.02
60307;BME280;46155;52.364;6.580;2023-04-02T16:57:19;102387.47;;;8.23;60.84
60307;BME280;46155;52.364;6.580;2023-04-02T16:59:59;102397.94;;;8.23;60.47
60307;BME280;46155;52.364;6.580;2023-04-02T17:05:25;102396.34;;;8.25;60.68
60307;BME280;46155;52.364;6.580;2023-04-02T17:08:06;102411.72;;;8.31;61.03
60307;BME280;46155;52.364;6.580;2023-04-02T17:13:25;102414.19;;;8.29;61.02
60307;BME280;46155;52.364;6.580;2023-04-02T17:16:18;102419.91;;;8.34;61.65
60307;BME280;46155;52.364;6.580;2023-04-02T17:18:46;102419.09;;;8.35;62.16
60307;BME280;46155;52.364;6.580;2023-04-02T17:21:16;102427.44;;;8.31;62.16
60307;BME280;46155;52.364;6.580;2023-04-02T17:23:53;102427.94;;;8.26;61.91
60307;BME280;46155;52.364;6.580;2023-04-02T17:26:19;102434.88;;;8.17;61.37
60307;BME280;46155;52.364;6.580;2023-04-02T17:28:48;102437.69;;;8.10;60.42
60307;BME280;46155;52.364;6.580;2023-04-02T17:31:40;102443.38;;;8.06;61.28
60307;BME280;46155;52.364;6.580;2023-04-02T17:34:15;102438.81;;;7.95;62.09
60307;BME280;46155;52.364;6.580;2023-04-02T17:39:22;102447.28;;;7.83;64.06
60307;BME280;46155;52.364;6.580;2023-04-02T17:45:06;102453.75;;;7.78;67.38
60307;BME280;46155;52.364;6.580;2023-04-02T17:53:14;102473.19;;;7.63;69.12
60307;BME280;46155;52.364;6.580;2023-04-02T17:58:57;102481.78;;;7.53;70.23
60307;BME280;46155;52.364;6.580;2023-04-02T18:04:43;102474.56;;;7.41;70.88
60307;BME280;46155;52.364;6.580;2023-04-02T18:07:27;102491.91;;;7.41;71.34
60307;BME280;46155;52.364;6.580;2023-04-02T18:15:38;102501.63;;;7.33;70.35
60307;BME280;46155;52.364;6.580;2023-04-02T18:24:01;102502.38;;;7.23;70.87
60307;BME280;46155;52.364;6.580;2023-04-02T18:35:10;102527.81;;;7.00;72.06
60307;BME280;46155;52.364;6.580;2023-04-02T18:51:19;102547.91;;;6.83;72.81
60307;BME280;46155;52.364;6.580;2023-04-02T18:53:52;102548.50;;;6.81;73.16
60307;BME280;46155;52.364;6.580;2023-04-02T18:56:19;102559.41;;;6.77;73.62
60307;BME280;46155;52.364;6.580;2023-04-02T19:01:48;102568.94;;;6.85;73.64
60307;BME280;46155;52.364;6.580;2023-04-02T19:04:18;102565.41;;;6.84;72.67
60307;BME280;46155;52.364;6.580;2023-04-02T19:06:50;102577.66;;;6.77;72.78
60307;BME280;46155;52.364;6.580;2023-04-02T19:11:44;102574.66;;;6.65;73.93
60307;BME280;46155;52.364;6.580;2023-04-02T19:14:18;102580.00;;;6.58;74.75
60307;BME280;46155;52.364;6.580;2023-04-02T19:19:32;102586.88;;;6.48;77.21
60307;BME280;46155;52.364;6.580;2023-04-02T19:22:43;102592.81;;;6.38;76.12
60307;BME280;46155;52.364;6.580;2023-04-02T19:25:20;102602.72;;;6.25;76.99
60307;BME280;46155;52.364;6.580;2023-04-02T19:41:58;102609.22;;;5.97;78.02
60307;BME280;46155;52.364;6.580;2023-04-02T19:44:27;102617.88;;;5.89;77.74
60307;BME280;46155;52.364;6.580;2023-04-02T19:46:52;102613.59;;;5.73;78.36
60307;BME280;46155;52.364;6.580;2023-04-02T19:49:29;102611.75;;;5.72;78.25
60307;BME280;46155;52.364;6.580;2023-04-02T19:51:56;102618.91;;;5.66;78.72
60307;BME280;46155;52.364;6.580;2023-04-02T19:54:22;102622.69;;;5.61;79.62
60307;BME280;46155;52.364;6.580;2023-04-02T19:56:48;102639.56;;;5.48;78.84
60307;BME280;46155;52.364;6.580;2023-04-02T19:59:13;102634.75;;;5.44;79.01
60307;BME280;46155;52.364;6.580;2023-04-02T20:01:38;102638.16;;;5.43;79.38
60307;BME280;46155;52.364;6.580;2023-04-02T20:04:04;102634.09;;;5.38;79.15
60307;BME280;46155;52.364;6.580;2023-04-02T20:06:31;102640.47;;;5.33;79.70
60307;BME280;46155;52.364;6.580;2023-04-02T20:08:57;102640.13;;;5.30;79.23
60307;BME280;46155;52.364;6.580;2023-04-02T20:11:23;102642.47;;;5.20;80.32
60307;BME280;46155;52.364;6.580;2023-04-02T20:13:49;102655.25;;;5.25;80.04
60307;BME280;46155;52.364;6.580;2023-04-02T20:16:15;102651.72;;;5.25;80.68
60307;BME280;46155;52.364;6.580;2023-04-02T20:18:41;102650.53;;;5.30;80.59
60307;BME280;46155;52.364;6.580;2023-04-02T20:21:06;102662.41;;;5.35;80.53
60307;BME280;46155;52.364;6.580;2023-04-02T20:23:33;102669.38;;;5.27;80.21
60307;BME280;46155;52.364;6.580;2023-04-02T20:26:00;102663.63;;;5.23;80.73
60307;BME280;46155;52.364;6.580;2023-04-02T20:28:26;102672.25;;;5.14;80.46
60307;BME280;46155;52.364;6.580;2023-04-02T20:30:52;102674.19;;;5.08;80.73
60307;BME280;46155;52.364;6.580;2023-04-02T20:33:23;102675.28;;;5.10;81.05
60307;BME280;46155;52.364;6.580;2023-04-02T20:35:49;102684.31;;;4.98;81.46
60307;BME280;46155;52.364;6.580;2023-04-02T20:38:15;102682.16;;;4.87;81.96
60307;BME280;46155;52.364;6.580;2023-04-02T20:40:42;102692.06;;;4.82;82.95
60307;BME280;46155;52.364;6.580;2023-04-02T20:43:08;102686.31;;;4.77;83.41
60307;BME280;46155;52.364;6.580;2023-04-02T20:45:35;102687.47;;;4.72;83.99
60307;BME280;46155;52.364;6.580;2023-04-02T20:48:01;102682.34;;;4.65;83.66